createdAt,value
2018-09-28T00:01:38.480Z,7.00
2018-09-28T00:04:07.722Z,6.90
2018-09-28T00:06:35.871Z,6.90
2018-09-28T00:09:04.679Z,6.80
2018-09-28T00:11:32.888Z,6.90
2018-09-28T00:14:01.054Z,6.80
2018-09-28T00:16:29.184Z,6.90
2018-09-28T00:18:58.718Z,6.80
2018-09-28T00:21:28.151Z,6.80
2018-09-28T00:23:56.359Z,6.90
2018-09-28T00:26:24.563Z,7.00
2018-09-28T00:28:52.705Z,6.90
2018-09-28T00:31:20.896Z,6.90
2018-09-28T00:33:49.087Z,6.90
2018-09-28T00:36:17.246Z,6.90
2018-09-28T00:38:45.320Z,7.00
2018-09-28T00:41:13.532Z,7.00
2018-09-28T00:43:41.740Z,7.00
2018-09-28T00:46:09.859Z,7.00
2018-09-28T00:48:38.827Z,7.00
2018-09-28T00:51:06.884Z,7.00
2018-09-28T00:53:35.013Z,6.90
2018-09-28T00:56:03.175Z,7.00
2018-09-28T00:58:31.551Z,7.00
2018-09-28T01:00:59.661Z,6.90
2018-09-28T01:03:27.884Z,7.00
2018-09-28T01:05:55.957Z,6.80
2018-09-28T01:08:24.223Z,6.80
2018-09-28T01:10:52.517Z,6.80
2018-09-28T01:13:20.676Z,6.80
2018-09-28T01:15:49.225Z,6.70
2018-09-28T01:18:17.982Z,6.60
2018-09-28T01:20:46.394Z,6.60
2018-09-28T01:23:14.562Z,6.60
2018-09-28T01:25:42.754Z,6.50
2018-09-28T01:28:10.844Z,6.60
2018-09-28T01:30:39.067Z,6.50
2018-09-28T01:33:07.350Z,6.60
2018-09-28T01:35:35.565Z,6.40
2018-09-28T01:38:04.959Z,6.50
2018-09-28T01:40:33.113Z,6.60
2018-09-28T01:43:01.352Z,6.40
2018-09-28T01:45:29.472Z,6.50
2018-09-28T01:47:57.760Z,6.50
2018-09-28T01:50:26.450Z,6.30
2018-09-28T01:52:54.566Z,6.30
2018-09-28T01:55:22.652Z,6.40
2018-09-28T01:57:50.816Z,6.40
2018-09-28T02:00:18.954Z,6.60
2018-09-28T02:02:47.130Z,6.60
2018-09-28T02:05:15.271Z,6.50
2018-09-28T02:07:43.397Z,6.60
2018-09-28T02:10:11.893Z,6.50
2018-09-28T02:12:40.954Z,6.40
2018-09-28T02:15:09.059Z,6.60
2018-09-28T02:17:37.200Z,6.40
2018-09-28T02:20:05.371Z,6.50
2018-09-28T02:22:33.639Z,6.40
2018-09-28T02:25:01.795Z,6.40
2018-09-28T02:27:29.939Z,6.40
2018-09-28T02:29:58.245Z,6.40
2018-09-28T02:32:26.297Z,6.50
2018-09-28T02:34:54.510Z,6.50
2018-09-28T02:37:22.773Z,6.50
2018-09-28T02:39:50.866Z,6.60
2018-09-28T02:42:18.986Z,6.70
2018-09-28T02:44:47.337Z,6.50
2018-09-28T02:47:15.597Z,6.70
2018-09-28T02:49:43.737Z,6.70
2018-09-28T02:52:11.945Z,6.70
2018-09-28T02:54:40.069Z,6.60
2018-09-28T02:57:08.351Z,6.70
2018-09-28T02:59:36.485Z,6.60
2018-09-28T03:02:04.693Z,6.80
2018-09-28T03:04:33.138Z,6.70
2018-09-28T03:07:01.198Z,6.80
2018-09-28T03:09:29.293Z,6.80
2018-09-28T03:11:57.425Z,6.80
2018-09-28T03:14:26.140Z,6.80
2018-09-28T03:16:54.275Z,6.90
2018-09-28T03:19:22.451Z,6.90
2018-09-28T03:21:50.628Z,6.90
2018-09-28T03:24:18.782Z,6.90
2018-09-28T03:26:47.336Z,6.90
2018-09-28T03:29:15.474Z,6.90
2018-09-28T03:31:44.896Z,6.90
2018-09-28T03:34:13.059Z,7.00
2018-09-28T03:36:41.303Z,6.90
2018-09-28T03:39:10.186Z,6.90
2018-09-28T03:41:38.211Z,6.90
2018-09-28T03:44:06.569Z,6.90
2018-09-28T03:46:34.898Z,6.90
2018-09-28T03:49:03.056Z,6.90
2018-09-28T03:51:31.203Z,6.80
2018-09-28T03:54:01.050Z,6.90
2018-09-28T03:56:29.259Z,6.90
2018-09-28T03:58:57.400Z,6.80
2018-09-28T04:01:25.501Z,6.80
2018-09-28T04:03:53.795Z,6.90
2018-09-28T04:06:21.956Z,6.80
2018-09-28T04:08:50.002Z,6.80
2018-09-28T04:11:18.157Z,6.80
2018-09-28T04:13:46.279Z,6.80
2018-09-28T04:16:14.540Z,6.70
2018-09-28T04:18:42.644Z,6.70
2018-09-28T04:21:11.034Z,6.80
2018-09-28T04:23:39.174Z,6.80
2018-09-28T04:26:07.920Z,6.70
2018-09-28T04:28:36.207Z,6.70
2018-09-28T04:31:04.234Z,6.70
2018-09-28T04:33:32.461Z,6.70
2018-09-28T04:36:00.632Z,6.70
2018-09-28T04:38:28.655Z,6.70
2018-09-28T04:40:56.763Z,6.70
2018-09-28T04:43:25.058Z,6.70
2018-09-28T04:45:53.344Z,6.60
2018-09-28T04:48:21.508Z,6.60
2018-09-28T04:50:49.812Z,6.70
2018-09-28T04:53:18.548Z,6.60
2018-09-28T04:55:46.771Z,6.60
2018-09-28T04:58:15.136Z,6.60
2018-09-28T05:00:43.402Z,6.60
2018-09-28T05:03:11.774Z,6.50
2018-09-28T05:05:39.931Z,6.40
2018-09-28T05:08:08.062Z,6.50
2018-09-28T05:10:36.197Z,6.50
2018-09-28T05:13:04.279Z,6.70
2018-09-28T05:15:32.363Z,6.70
2018-09-28T05:18:00.402Z,6.70
2018-09-28T05:20:28.496Z,6.70
2018-09-28T05:22:56.873Z,6.70
2018-09-28T05:25:24.949Z,6.70
2018-09-28T05:27:53.169Z,6.70
2018-09-28T05:30:21.466Z,6.80
2018-09-28T05:32:50.343Z,6.70
2018-09-28T05:35:18.399Z,6.70
2018-09-28T05:37:47.251Z,6.70
2018-09-28T05:40:15.368Z,6.70
2018-09-28T05:42:43.390Z,6.80
2018-09-28T05:45:11.484Z,6.80
2018-09-28T05:47:39.658Z,6.80
2018-09-28T05:50:07.807Z,6.80
2018-09-28T05:52:36.115Z,6.90
2018-09-28T05:55:04.325Z,6.90
2018-09-28T05:57:32.412Z,6.80
2018-09-28T06:00:05.923Z,6.90
2018-09-28T06:02:39.202Z,6.80
2018-09-28T06:05:12.514Z,6.80
2018-09-28T06:07:40.700Z,6.80
2018-09-28T06:10:08.907Z,6.70
2018-09-28T06:12:37.066Z,6.70
2018-09-28T06:15:05.356Z,6.80
2018-09-28T06:17:33.482Z,6.90
2018-09-28T06:20:01.670Z,6.90
2018-09-28T06:22:30.134Z,7.00
2018-09-28T06:24:58.359Z,6.90
2018-09-28T06:27:26.410Z,7.00
2018-09-28T06:29:54.585Z,7.10
2018-09-28T06:32:22.691Z,7.20
2018-09-28T06:34:51.366Z,7.30
2018-09-28T06:37:19.568Z,7.40
2018-09-28T06:39:47.703Z,7.30
2018-09-28T06:42:16.260Z,7.30
2018-09-28T06:44:44.399Z,7.30
2018-09-28T06:47:12.467Z,7.30
2018-09-28T06:49:40.562Z,7.30
2018-09-28T06:52:08.632Z,7.30
2018-09-28T06:54:37.735Z,7.40
2018-09-28T06:57:05.926Z,7.30
2018-09-28T06:59:34.063Z,7.40
2018-09-28T07:02:02.137Z,7.30
2018-09-28T07:04:30.213Z,7.40
2018-09-28T07:06:58.418Z,7.30
2018-09-28T07:09:26.642Z,7.20
2018-09-28T07:11:54.733Z,7.20
2018-09-28T07:14:22.792Z,7.20
2018-09-28T07:16:51.044Z,7.40
2018-09-28T07:19:19.108Z,7.30
2018-09-28T07:21:47.215Z,7.40
2018-09-28T07:24:15.360Z,7.40
2018-09-28T07:26:43.399Z,7.40
2018-09-28T07:29:11.642Z,7.50
2018-09-28T07:31:39.917Z,7.50
2018-09-28T07:34:08.776Z,7.60
2018-09-28T07:36:37.145Z,7.40
2018-09-28T07:39:07.374Z,7.50
2018-09-28T07:41:36.034Z,7.60
2018-09-28T07:44:04.255Z,7.70
2018-09-28T07:46:32.421Z,7.60
2018-09-28T07:49:00.477Z,7.60
2018-09-28T07:51:28.790Z,7.80
2018-09-28T07:53:57.041Z,7.80
2018-09-28T07:56:25.211Z,7.70
2018-09-28T07:58:53.460Z,7.90
2018-09-28T08:01:21.511Z,7.90
2018-09-28T08:03:49.669Z,7.80
2018-09-28T08:06:17.763Z,8.00
2018-09-28T08:08:45.838Z,8.10
2018-09-28T08:11:14.078Z,8.10
2018-09-28T08:13:42.195Z,8.10
2018-09-28T08:16:10.267Z,8.00
2018-09-28T08:18:38.563Z,8.00
2018-09-28T08:21:06.724Z,7.90
2018-09-28T08:23:35.720Z,7.70
2018-09-28T08:26:03.957Z,7.90
2018-09-28T08:28:32.110Z,7.90
2018-09-28T08:31:00.315Z,8.10
2018-09-28T08:33:28.476Z,8.30
2018-09-28T08:35:56.698Z,8.30
2018-09-28T08:38:24.782Z,8.30
2018-09-28T08:40:52.934Z,8.10
2018-09-28T08:43:21.016Z,8.10
2018-09-28T08:45:49.539Z,8.10
2018-09-28T08:48:17.779Z,8.10
2018-09-28T08:50:47.403Z,8.30
2018-09-28T08:53:15.514Z,8.40
2018-09-28T08:55:43.681Z,8.20
2018-09-28T08:58:11.805Z,8.20
2018-09-28T09:00:39.917Z,8.00
2018-09-28T09:03:08.325Z,8.20
2018-09-28T09:05:36.381Z,8.10
2018-09-28T09:08:04.860Z,8.30
2018-09-28T09:10:33.594Z,8.20
2018-09-28T09:13:01.945Z,8.30
2018-09-28T09:15:29.963Z,8.40
2018-09-28T09:17:58.169Z,8.20
2018-09-28T09:20:26.287Z,8.20
2018-09-28T09:22:54.398Z,8.30
2018-09-28T09:25:23.090Z,8.20
2018-09-28T09:27:51.249Z,8.20
2018-09-28T09:30:19.351Z,8.10
2018-09-28T09:32:47.514Z,8.30
2018-09-28T09:35:15.658Z,8.30
2018-09-28T09:37:43.839Z,8.20
2018-09-28T09:40:11.882Z,8.30
2018-09-28T09:42:40.772Z,8.20
2018-09-28T09:45:08.880Z,8.30
2018-09-28T09:47:36.932Z,8.30
2018-09-28T09:50:05.230Z,8.20
2018-09-28T09:52:33.225Z,8.20
2018-09-28T09:55:01.274Z,8.30
2018-09-28T10:01:04.822Z,8.30
2018-09-28T10:03:38.376Z,8.30
2018-09-28T10:06:06.702Z,8.30
2018-09-28T10:08:34.786Z,8.70
2018-09-28T10:11:02.997Z,8.70
2018-09-28T10:13:31.159Z,8.60
2018-09-28T10:15:59.318Z,8.40
2018-09-28T10:18:27.423Z,8.40
2018-09-28T10:20:55.699Z,8.40
2018-09-28T10:23:23.746Z,8.50
2018-09-28T10:25:51.889Z,8.40
2018-09-28T10:28:20.088Z,8.50
2018-09-28T10:30:48.390Z,8.60
2018-09-28T10:33:18.174Z,8.40
2018-09-28T10:35:46.562Z,8.40
2018-09-28T10:38:14.613Z,8.60
2018-09-28T10:40:43.009Z,8.40
2018-09-28T10:43:10.954Z,8.50
2018-09-28T10:45:39.803Z,8.40
2018-09-28T10:48:07.851Z,8.50
2018-09-28T10:50:36.095Z,8.50
2018-09-28T10:53:04.545Z,8.30
2018-09-28T10:55:32.699Z,8.30
2018-09-28T10:58:00.873Z,8.30
2018-09-28T11:00:29.057Z,8.20
2018-09-28T11:02:57.123Z,8.10
2018-09-28T11:05:25.170Z,8.30
2018-09-28T11:07:53.659Z,8.20
2018-09-28T11:10:21.775Z,8.30
2018-09-28T11:12:50.118Z,8.30
2018-09-28T11:15:18.334Z,8.40
2018-09-28T11:17:46.502Z,8.30
2018-09-28T11:20:14.870Z,8.50
2018-09-28T11:22:42.913Z,8.30
2018-09-28T11:25:11.170Z,8.30
2018-09-28T11:27:39.497Z,8.40
2018-09-28T11:30:07.592Z,8.30
2018-09-28T11:32:35.755Z,8.40
2018-09-28T11:35:03.999Z,8.30
2018-09-28T11:37:32.238Z,8.40
2018-09-28T11:40:00.347Z,8.30
2018-09-28T11:42:29.250Z,8.50
2018-09-28T11:44:57.438Z,8.50
2018-09-28T11:47:25.523Z,8.40
2018-09-28T11:49:53.798Z,8.30
2018-09-28T11:52:22.022Z,8.40
2018-09-28T11:54:50.279Z,8.40
2018-09-28T11:57:18.343Z,8.60
2018-09-28T11:59:46.494Z,8.50
2018-09-28T12:02:14.538Z,8.50
2018-09-28T12:04:42.770Z,8.60
2018-09-28T12:07:11.077Z,8.70
2018-09-28T12:09:40.092Z,8.80
2018-09-28T12:12:08.275Z,8.90
2018-09-28T12:14:36.394Z,9.10
2018-09-28T12:17:04.566Z,9.20
2018-09-28T12:19:32.670Z,9.30
2018-09-28T12:22:00.828Z,9.10
2018-09-28T12:24:28.866Z,9.10
2018-09-28T12:26:57.150Z,9.10
2018-09-28T12:29:25.331Z,9.00
2018-09-28T12:31:53.390Z,9.30
2018-09-28T12:34:21.514Z,9.10
2018-09-28T12:36:49.614Z,9.10
2018-09-28T12:39:17.822Z,9.20
2018-09-28T12:41:46.803Z,9.30
2018-09-28T12:44:14.945Z,9.40
2018-09-28T12:46:42.980Z,9.20
2018-09-28T12:49:11.201Z,9.20
2018-09-28T12:51:39.370Z,9.10
2018-09-28T12:54:07.579Z,9.20
2018-09-28T12:56:35.802Z,9.50
2018-09-28T12:59:03.975Z,9.50
2018-09-28T13:01:32.275Z,9.50
2018-09-28T13:04:00.434Z,9.40
2018-09-28T13:06:29.436Z,9.40
2018-09-28T13:08:57.491Z,9.40
2018-09-28T13:11:25.523Z,9.50
2018-09-28T13:13:53.914Z,9.30
2018-09-28T13:16:21.970Z,9.20
2018-09-28T13:18:50.157Z,9.10
2018-09-28T13:21:18.197Z,9.00
2018-09-28T13:23:46.333Z,9.00
2018-09-28T13:26:14.509Z,8.70
2018-09-28T13:28:42.633Z,8.50
2018-09-28T13:31:10.700Z,8.70
2018-09-28T13:33:39.018Z,8.80
2018-09-28T13:36:07.772Z,8.60
2018-09-28T13:38:36.340Z,8.60
2018-09-28T13:41:04.455Z,8.60
2018-09-28T13:43:32.631Z,8.80
2018-09-28T13:46:00.965Z,9.00
2018-09-28T13:48:29.144Z,9.30
2018-09-28T13:50:57.151Z,9.40
2018-09-28T13:53:25.338Z,9.40
2018-09-28T13:55:53.473Z,9.50
2018-09-28T13:58:21.577Z,9.50
2018-09-28T14:00:49.916Z,9.40
2018-09-28T14:03:18.181Z,9.40
2018-09-28T14:05:46.303Z,9.20
2018-09-28T14:08:14.414Z,9.40
2018-09-28T14:10:43.490Z,9.50
2018-09-28T14:13:11.561Z,9.50
2018-09-28T14:15:40.319Z,9.40
2018-09-28T14:18:08.553Z,9.40
2018-09-28T14:20:36.643Z,9.50
2018-09-28T14:23:04.778Z,9.40
2018-09-28T14:25:32.903Z,9.40
2018-09-28T14:28:01.083Z,9.50
2018-09-28T14:30:29.361Z,9.30
2018-09-28T14:32:58.344Z,9.50
2018-09-28T14:35:27.282Z,9.40
2018-09-28T14:37:55.350Z,9.50
2018-09-28T14:40:23.583Z,9.60
2018-09-28T14:42:52.686Z,9.80
2018-09-28T14:45:21.867Z,9.70
2018-09-28T14:47:49.908Z,9.60
2018-09-28T14:50:18.265Z,9.50
2018-09-28T14:52:46.377Z,9.40
2018-09-28T14:55:14.407Z,9.50
2018-09-28T14:57:42.896Z,9.50
2018-09-28T15:00:11.072Z,9.40
2018-09-28T15:02:39.262Z,9.30
2018-09-28T15:05:07.582Z,9.30
2018-09-28T15:07:35.697Z,9.30
2018-09-28T15:10:03.895Z,9.30
2018-09-28T15:12:32.030Z,9.30
2018-09-28T15:15:00.151Z,9.40
2018-09-28T15:17:28.432Z,9.20
2018-09-28T15:19:56.734Z,9.40
2018-09-28T15:22:25.515Z,9.40
2018-09-28T15:24:54.350Z,9.20
2018-09-28T15:27:22.437Z,9.30
2018-09-28T15:29:52.343Z,9.20
2018-09-28T15:32:20.523Z,9.10
2018-09-28T15:34:48.623Z,9.10
2018-09-28T15:37:17.737Z,9.00
2018-09-28T15:39:46.444Z,9.00
2018-09-28T15:42:14.630Z,8.90
2018-09-28T15:44:42.783Z,8.90
2018-09-28T15:47:11.901Z,8.70
2018-09-28T15:49:40.892Z,8.80
2018-09-28T15:52:09.050Z,8.60
2018-09-28T15:54:37.242Z,8.70
2018-09-28T15:57:05.541Z,8.70
2018-09-28T15:59:33.677Z,8.60
2018-09-28T16:02:01.790Z,8.60
2018-09-28T16:04:29.959Z,8.50
2018-09-28T16:06:58.154Z,8.50
2018-09-28T16:09:27.690Z,8.30
2018-09-28T16:11:55.927Z,8.30
2018-09-28T16:14:24.094Z,8.30
2018-09-28T16:16:52.378Z,8.20
2018-09-28T16:19:20.770Z,8.20
2018-09-28T16:21:48.834Z,8.20
2018-09-28T16:24:16.967Z,8.10
2018-09-28T16:26:46.098Z,8.10
2018-09-28T16:29:14.375Z,8.00
2018-09-28T16:31:42.466Z,8.00
2018-09-28T16:34:10.630Z,7.90
2018-09-28T16:36:39.784Z,7.90
2018-09-28T16:39:09.564Z,7.90
2018-09-28T16:41:39.801Z,7.70
2018-09-28T16:44:08.106Z,7.70
2018-09-28T16:46:36.252Z,7.70
2018-09-28T16:49:04.607Z,7.60
2018-09-28T16:51:33.763Z,7.60
2018-09-28T16:54:02.425Z,7.60
2018-09-28T16:56:32.050Z,7.60
2018-09-28T16:59:01.224Z,7.50
2018-09-28T17:01:29.595Z,7.40
2018-09-28T17:03:57.807Z,7.30
2018-09-28T17:06:25.870Z,7.20
2018-09-28T17:08:54.481Z,7.20
2018-09-28T17:11:22.591Z,7.00
2018-09-28T17:13:50.781Z,6.90
2018-09-28T17:16:18.948Z,6.90
2018-09-28T17:18:47.163Z,6.90
2018-09-28T17:21:15.353Z,6.90
2018-09-28T17:23:43.611Z,6.70
2018-09-28T17:26:11.764Z,6.80
2018-09-28T17:28:39.917Z,6.70
2018-09-28T17:31:08.046Z,6.70
2018-09-28T17:33:36.152Z,6.60
2018-09-28T17:36:04.251Z,6.50
2018-09-28T17:38:32.363Z,6.40
2018-09-28T17:41:02.069Z,6.50
2018-09-28T17:43:30.254Z,6.30
2018-09-28T17:45:59.005Z,6.20
2018-09-28T17:48:27.319Z,6.20
2018-09-28T17:50:55.583Z,6.20
2018-09-28T17:53:24.638Z,6.20
2018-09-28T17:55:52.836Z,6.20
2018-09-28T17:58:21.126Z,6.20
2018-09-28T18:00:49.283Z,6.10
2018-09-28T18:03:17.382Z,6.10
2018-09-28T18:05:45.624Z,6.10
2018-09-28T18:08:13.937Z,6.10
2018-09-28T18:10:42.963Z,6.10
2018-09-28T18:13:11.247Z,6.10
2018-09-28T18:15:39.652Z,6.10
2018-09-28T18:18:08.439Z,6.00
2018-09-28T18:20:36.756Z,6.00
2018-09-28T18:23:04.935Z,6.00
2018-09-28T18:25:33.112Z,6.00
2018-09-28T18:28:01.245Z,5.80
2018-09-28T18:30:29.463Z,5.80
2018-09-28T18:32:57.923Z,5.70
2018-09-28T18:35:27.330Z,5.70
2018-09-28T18:37:56.034Z,5.70
2018-09-28T18:40:24.094Z,5.60
2018-09-28T18:42:52.676Z,5.60
2018-09-28T18:45:20.838Z,5.60
2018-09-28T18:47:49.027Z,5.60
2018-09-28T18:50:17.412Z,5.60
2018-09-28T18:52:45.795Z,5.60
2018-09-28T18:55:14.699Z,5.60
2018-09-28T18:57:43.838Z,5.70
2018-09-28T19:00:12.658Z,5.70
2018-09-28T19:02:40.930Z,5.70
2018-09-28T19:05:09.249Z,5.70
2018-09-28T19:07:38.431Z,5.80
2018-09-28T19:10:08.003Z,5.90
2018-09-28T19:12:41.977Z,5.90
2018-09-28T19:15:11.856Z,5.90
2018-09-28T19:17:41.603Z,6.00
2018-09-28T19:20:10.342Z,5.90
2018-09-28T19:22:40.776Z,5.90
2018-09-28T19:25:10.329Z,5.80
2018-09-28T19:27:42.391Z,5.90
2018-09-28T19:30:12.321Z,6.00
2018-09-28T19:32:43.113Z,6.00
2018-09-28T19:35:11.191Z,6.10
2018-09-28T19:37:40.342Z,6.20
2018-09-28T19:40:09.800Z,6.20
2018-09-28T19:42:38.599Z,6.30
2018-09-28T19:45:08.507Z,6.20
2018-09-28T19:47:37.206Z,6.20
2018-09-28T19:50:05.588Z,6.30
2018-09-28T19:52:34.072Z,6.50
2018-09-28T19:55:02.613Z,6.70
2018-09-28T19:57:31.880Z,6.70
2018-09-28T20:00:00.268Z,6.70
2018-09-28T20:02:28.727Z,6.70
2018-09-28T20:04:56.846Z,6.60
2018-09-28T20:07:25.838Z,6.50
2018-09-28T20:09:54.010Z,6.40
2018-09-28T20:12:22.118Z,6.40
2018-09-28T20:14:51.125Z,6.30
2018-09-28T20:17:19.314Z,6.30
2018-09-28T20:19:47.359Z,6.30
2018-09-28T20:22:15.492Z,6.20
2018-09-28T20:24:44.422Z,6.30
2018-09-28T20:27:12.500Z,6.20
2018-09-28T20:29:40.617Z,6.20
2018-09-28T20:32:08.789Z,6.20
2018-09-28T20:34:36.894Z,6.20
2018-09-28T20:37:06.572Z,6.10
2018-09-28T20:39:34.634Z,6.10
2018-09-28T20:42:02.997Z,6.00
2018-09-28T20:44:32.066Z,5.90
2018-09-28T20:47:00.982Z,5.90
2018-09-28T20:49:29.142Z,5.90
2018-09-28T20:51:57.485Z,5.90
2018-09-28T20:54:25.689Z,5.80
2018-09-28T20:56:53.882Z,5.80
2018-09-28T20:59:22.002Z,5.70
2018-09-28T21:01:50.197Z,5.60
2018-09-28T21:04:18.326Z,5.50
2018-09-28T21:06:46.793Z,5.50
2018-09-28T21:09:14.834Z,5.40
2018-09-28T21:11:43.043Z,5.40
2018-09-28T21:14:11.163Z,5.30
2018-09-28T21:16:39.291Z,5.20
2018-09-28T21:19:08.129Z,5.20
2018-09-28T21:21:36.839Z,5.10
2018-09-28T21:24:05.855Z,5.20
2018-09-28T21:26:34.157Z,5.10
2018-09-28T21:29:02.427Z,5.20
2018-09-28T21:31:30.456Z,5.10
2018-09-28T21:33:58.549Z,5.00
2018-09-28T21:36:27.354Z,5.00
2018-09-28T21:38:55.716Z,5.00
2018-09-28T21:41:23.775Z,5.00
2018-09-28T21:43:52.006Z,5.00
2018-09-28T21:46:20.254Z,4.90
2018-09-28T21:48:48.491Z,4.90
2018-09-28T21:51:16.547Z,4.70
2018-09-28T21:53:44.662Z,4.70
2018-09-28T21:56:13.730Z,4.70
2018-09-28T21:58:42.022Z,4.70
2018-09-28T22:01:10.211Z,4.70
2018-09-28T22:03:38.324Z,4.50
2018-09-28T22:06:06.455Z,4.50
2018-09-28T22:08:35.603Z,4.60
2018-09-28T22:11:03.754Z,4.60
2018-09-28T22:13:31.846Z,4.60
2018-09-28T22:15:59.803Z,4.50
2018-09-28T22:18:27.911Z,4.50
2018-09-28T22:20:56.039Z,4.50
2018-09-28T22:23:24.230Z,4.50
2018-09-28T22:25:52.327Z,4.50
2018-09-28T22:28:20.459Z,4.50
2018-09-28T22:30:48.696Z,4.40
2018-09-28T22:33:16.792Z,4.40
2018-09-28T22:35:44.871Z,4.40
2018-09-28T22:38:13.010Z,4.50
2018-09-28T22:40:41.216Z,4.40
2018-09-28T22:43:09.438Z,4.40
2018-09-28T22:45:37.742Z,4.40
2018-09-28T22:48:05.857Z,4.30
2018-09-28T22:50:34.976Z,4.30
2018-09-28T22:53:03.114Z,4.30
2018-09-28T22:55:31.344Z,4.30
2018-09-28T22:57:59.437Z,4.30
2018-09-28T23:00:27.870Z,4.30
2018-09-28T23:02:55.924Z,4.20
2018-09-28T23:05:24.211Z,4.20
2018-09-28T23:07:52.282Z,4.10
2018-09-28T23:10:20.573Z,4.10
2018-09-28T23:12:48.888Z,4.10
2018-09-28T23:15:17.174Z,4.00
2018-09-28T23:17:46.738Z,4.00
2018-09-28T23:20:14.882Z,4.00
2018-09-28T23:22:43.006Z,4.10
2018-09-28T23:25:11.315Z,4.00
2018-09-28T23:27:39.545Z,4.00
2018-09-28T23:30:07.764Z,3.90
2018-09-28T23:32:36.429Z,3.90
2018-09-28T23:35:05.610Z,3.90
2018-09-28T23:37:33.886Z,3.90
2018-09-28T23:40:02.035Z,3.90
2018-09-28T23:42:30.548Z,3.90
2018-09-28T23:45:00.357Z,3.80
2018-09-28T23:47:28.711Z,3.80
2018-09-28T23:49:56.831Z,3.80
2018-09-28T23:52:24.877Z,3.70
2018-09-28T23:54:52.995Z,3.60
2018-09-28T23:57:21.274Z,3.70
2018-09-28T23:59:49.407Z,3.60
